createdAt,value
2018-08-03T00:04:58.841Z,23.1
2018-08-03T00:09:58.801Z,23.1
2018-08-03T00:14:58.984Z,23.1
2018-08-03T00:19:58.691Z,23.1
2018-08-03T00:24:58.655Z,23.1
2018-08-03T00:29:58.787Z,22.6
2018-08-03T00:34:58.709Z,22.6
2018-08-03T00:39:58.688Z,22.6
2018-08-03T00:44:58.622Z,22.5
2018-08-03T00:49:58.927Z,22.5
2018-08-03T00:54:58.898Z,22.5
2018-08-03T00:59:58.651Z,22.5
2018-08-03T01:04:58.909Z,22.5
2018-08-03T01:09:58.523Z,22.5
2018-08-03T01:14:58.915Z,22.5
2018-08-03T01:19:58.758Z,22.2
2018-08-03T01:24:58.559Z,22.2
2018-08-03T01:29:58.870Z,22.2
2018-08-03T01:34:58.668Z,22.2
2018-08-03T01:39:58.702Z,22.2
2018-08-03T01:44:58.602Z,22.2
2018-08-03T01:49:58.528Z,22
2018-08-03T01:54:58.477Z,22
2018-08-03T01:59:58.564Z,22
2018-08-03T02:04:58.598Z,22
2018-08-03T02:09:58.460Z,22
2018-08-03T02:14:58.720Z,22
2018-08-03T02:19:58.528Z,22
2018-08-03T02:24:58.792Z,22
2018-08-03T02:29:58.424Z,21.7
2018-08-03T02:34:58.530Z,21.7
2018-08-03T02:39:58.515Z,21.7
2018-08-03T02:44:58.457Z,21.7
2018-08-03T02:49:58.655Z,21.6
2018-08-03T02:54:58.442Z,21.6
2018-08-03T02:59:58.610Z,21.6
2018-08-03T03:04:58.859Z,21.6
2018-08-03T03:09:58.509Z,21.5
2018-08-03T03:14:58.632Z,21.5
2018-08-03T03:19:58.737Z,21.4
2018-08-03T03:24:58.411Z,21.4
2018-08-03T03:29:58.654Z,21.4
2018-08-03T03:34:58.324Z,21.4
2018-08-03T03:39:58.598Z,21.4
2018-08-03T03:44:58.445Z,21.4
2018-08-03T03:49:58.490Z,21.3
2018-08-03T03:54:58.612Z,21.3
2018-08-03T03:59:58.792Z,21.2
2018-08-03T04:04:58.298Z,21.2
2018-08-03T04:09:58.618Z,21.2
2018-08-03T04:14:58.512Z,21.2
2018-08-03T04:19:58.321Z,21.2
2018-08-03T04:24:58.559Z,21.2
2018-08-03T04:29:58.561Z,21.1
2018-08-03T04:34:58.314Z,21.1
2018-08-03T04:39:58.465Z,21.1
2018-08-03T04:44:58.240Z,21.2
2018-08-03T04:49:58.326Z,21.2
2018-08-03T04:54:58.323Z,21.2
2018-08-03T04:59:58.523Z,21.2
2018-08-03T05:04:58.475Z,21.2
2018-08-03T05:09:58.232Z,21.2
2018-08-03T05:14:58.531Z,21.2
2018-08-03T05:19:58.160Z,21.3
2018-08-03T05:24:58.208Z,21.3
2018-08-03T05:29:58.562Z,21.3
2018-08-03T05:34:58.324Z,21.3
2018-08-03T05:39:58.145Z,21.3
2018-08-03T05:44:58.337Z,21.3
2018-08-03T05:49:58.425Z,21.3
2018-08-03T05:54:58.294Z,21.5
2018-08-03T05:59:58.431Z,21.5
2018-08-03T06:04:58.227Z,21.5
2018-08-03T06:09:58.371Z,21.7
2018-08-03T06:14:58.344Z,21.7
2018-08-03T06:19:58.249Z,21.7
2018-08-03T06:24:58.459Z,21.7
2018-08-03T06:29:58.122Z,21.7
2018-08-03T06:34:58.133Z,21.7
2018-08-03T06:39:58.383Z,22.2
2018-08-03T06:44:58.429Z,22.2
2018-08-03T06:49:58.418Z,22.4
2018-08-03T06:54:58.052Z,22.4
2018-08-03T06:59:58.156Z,22.4
2018-08-03T07:04:58.003Z,22.4
2018-08-03T07:09:58.366Z,22.4
2018-08-03T07:14:58.268Z,23
2018-08-03T07:19:58.352Z,23
2018-08-03T07:24:58.340Z,23.3
2018-08-03T07:29:58.130Z,23.3
2018-08-03T07:34:58.295Z,23.3
2018-08-03T07:39:58.370Z,23.3
2018-08-03T07:44:58.259Z,23.7
2018-08-03T07:49:58.120Z,23.7
2018-08-03T07:54:58.177Z,23.7
2018-08-03T07:59:58.007Z,23.7
2018-08-03T08:04:58.217Z,23.7
2018-08-03T08:09:58.231Z,23.7
2018-08-03T08:14:57.985Z,24.5
2018-08-03T08:19:58.247Z,24.5
2018-08-03T08:24:57.902Z,24.5
2018-08-03T08:29:57.973Z,24.5
2018-08-03T08:34:58.139Z,24.5
2018-08-03T08:39:58.146Z,24.5
2018-08-03T08:44:58.007Z,24.5
2018-08-03T08:49:58.174Z,25.4
2018-08-03T08:54:58.151Z,25.4
2018-08-03T08:59:58.164Z,25.4
2018-08-03T09:04:57.927Z,25.7
2018-08-03T09:09:57.841Z,25.9
2018-08-03T09:14:57.862Z,25.9
2018-08-03T09:19:57.898Z,25.9
2018-08-03T09:24:57.939Z,25.9
2018-08-03T09:29:58.236Z,25.9
2018-08-03T09:34:58.087Z,25.9
2018-08-03T09:39:57.883Z,26.8
2018-08-03T09:44:58.089Z,26.8
2018-08-03T09:49:58.136Z,26.8
2018-08-03T09:54:57.949Z,26.8
2018-08-03T09:59:57.969Z,26.8
2018-08-03T10:04:57.890Z,26.8
2018-08-03T10:09:57.780Z,26.8
2018-08-03T10:14:57.796Z,26.8
2018-08-03T10:19:57.733Z,27.9
2018-08-03T10:24:57.983Z,28
2018-08-03T10:29:58.100Z,28
2018-08-03T10:34:57.835Z,28
2018-08-03T10:39:58.038Z,28.3
2018-08-03T10:44:58.041Z,28.3
2018-08-03T10:49:57.757Z,28.3
2018-08-03T10:54:57.673Z,28.3
2018-08-03T10:59:57.748Z,28.7
2018-08-03T11:04:57.884Z,28.7
2018-08-03T11:09:58.012Z,28.7
2018-08-03T11:14:57.795Z,28.7
2018-08-03T11:19:57.696Z,28.7
2018-08-03T11:24:58.016Z,28.7
2018-08-03T11:29:57.718Z,28.7
2018-08-03T11:34:57.944Z,28.7
2018-08-03T11:39:57.818Z,28.7
2018-08-03T11:44:57.908Z,29.9
2018-08-03T11:49:57.888Z,29.9
2018-08-03T11:54:57.566Z,29.9
2018-08-03T11:59:57.975Z,29.9
2018-08-03T12:04:57.726Z,30.5
2018-08-03T12:09:57.892Z,30.5
2018-08-03T12:14:57.576Z,30.5
2018-08-03T12:19:57.623Z,30.5
2018-08-03T12:24:57.710Z,30.5
2018-08-03T12:29:57.593Z,30.5
2018-08-03T12:34:57.883Z,30.5
2018-08-03T12:39:57.688Z,30.5
2018-08-03T12:44:57.542Z,30.5
2018-08-03T12:49:57.610Z,30.5
2018-08-03T12:54:57.663Z,30.5
2018-08-03T12:59:57.731Z,30.5
2018-08-03T13:04:57.783Z,30.5
2018-08-03T13:09:57.760Z,30.5
2018-08-03T13:14:57.496Z,30.5
2018-08-03T13:19:57.665Z,30.5
2018-08-03T13:24:57.626Z,30.5
2018-08-03T13:29:57.671Z,30.5
2018-08-03T13:34:57.533Z,30.5
2018-08-03T13:39:57.529Z,30.5
2018-08-03T13:44:57.545Z,30.5
2018-08-03T13:49:57.487Z,30.5
2018-08-03T13:54:57.576Z,30.5
2018-08-03T13:59:57.772Z,30.5
2018-08-03T14:04:57.691Z,30.5
2018-08-03T14:09:57.390Z,32.2
2018-08-03T14:14:57.665Z,32.2
2018-08-03T14:19:57.583Z,32.2
2018-08-03T14:24:57.348Z,32.2
2018-08-03T14:29:57.491Z,32.2
2018-08-03T14:34:57.442Z,32
2018-08-03T14:39:57.716Z,32
2018-08-03T14:44:57.402Z,32
2018-08-03T14:49:57.521Z,32
2018-08-03T14:54:57.337Z,31.7
2018-08-03T14:59:57.677Z,31.7
2018-08-03T15:04:57.464Z,31.7
2018-08-03T15:09:57.376Z,31.7
2018-08-03T15:14:57.309Z,31.7
2018-08-03T15:19:57.490Z,31.7
2018-08-03T15:24:57.557Z,31.7
2018-08-03T15:29:57.325Z,31.7
2018-08-03T15:34:57.560Z,31.7
2018-08-03T15:39:57.482Z,31.7
2018-08-03T15:44:57.561Z,31
2018-08-03T15:49:57.560Z,31
2018-08-03T15:54:57.526Z,30.8
2018-08-03T15:59:57.299Z,30.8
2018-08-03T16:04:57.493Z,30.8
2018-08-03T16:09:57.453Z,30.8
2018-08-03T16:14:57.304Z,30.8
2018-08-03T16:19:57.407Z,30.8
2018-08-03T16:24:57.260Z,30.8
2018-08-03T16:29:57.442Z,30.8
2018-08-03T16:34:57.184Z,30.8
2018-08-03T16:39:57.363Z,30.8
2018-08-03T16:44:57.379Z,30.8
2018-08-03T16:49:57.468Z,30.8
2018-08-03T16:54:57.348Z,30.8
2018-08-03T16:59:57.492Z,30.8
2018-08-03T17:04:57.446Z,30.8
2018-08-03T17:09:57.164Z,30.8
2018-08-03T17:14:57.203Z,30.8
2018-08-03T17:19:57.385Z,30.8
2018-08-03T17:24:57.335Z,30.8
2018-08-03T17:29:57.163Z,30.8
2018-08-03T17:34:57.435Z,30.8
2018-08-03T17:39:57.304Z,30.8
2018-08-03T17:44:57.397Z,30.8
2018-08-03T17:49:57.166Z,30.8
2018-08-03T17:54:57.070Z,30.8
2018-08-03T17:59:57.244Z,30.8
2018-08-03T18:04:57.367Z,30.8
2018-08-03T18:09:57.273Z,30.8
2018-08-03T18:14:57.146Z,30.8
2018-08-03T18:19:57.238Z,30.8
2018-08-03T18:24:57.117Z,30.8
2018-08-03T18:29:57.098Z,30.8
2018-08-03T18:34:57.111Z,30.8
2018-08-03T18:39:57.175Z,30.8
2018-08-03T18:44:57.260Z,30.8
2018-08-03T18:49:56.956Z,30.8
2018-08-03T18:54:56.999Z,30.8
2018-08-03T18:59:57.298Z,30.8
2018-08-03T19:04:56.977Z,30.8
2018-08-03T19:09:56.989Z,30.8
2018-08-03T19:14:57.197Z,30.8
2018-08-03T19:19:56.907Z,30.8
2018-08-03T19:24:57.264Z,30.8
2018-08-03T19:29:57.256Z,30.8
2018-08-03T19:34:57.064Z,30.8
2018-08-03T19:39:57.127Z,30.8
2018-08-03T19:44:56.864Z,30.8
2018-08-03T19:49:56.944Z,30.8
2018-08-03T19:54:57.042Z,30.8
2018-08-03T19:59:57.040Z,30.8
2018-08-03T20:04:57.102Z,30.8
2018-08-03T20:09:56.979Z,30.8
2018-08-03T20:14:56.975Z,30.8
2018-08-03T20:19:57.027Z,30.8
2018-08-03T20:24:56.988Z,30.8
2018-08-03T20:29:56.962Z,30.8
2018-08-03T20:34:56.870Z,30.8
2018-08-03T20:39:57.150Z,30.8
2018-08-03T20:44:56.967Z,30.8
2018-08-03T20:49:56.793Z,30.8
2018-08-03T20:54:56.738Z,30.8
2018-08-03T20:59:56.844Z,30.8
2018-08-03T21:04:56.964Z,30.8
2018-08-03T21:09:57.040Z,30.8
2018-08-03T21:14:56.962Z,30.8
2018-08-03T21:19:56.761Z,30.8
2018-08-03T21:24:56.955Z,30.8
2018-08-03T21:29:57.042Z,30.8
2018-08-03T21:34:56.747Z,30.8
2018-08-03T21:39:56.695Z,30.8
2018-08-03T21:44:57.002Z,30.8
2018-08-03T21:49:57.061Z,30.8
2018-08-03T21:54:56.745Z,30.8
2018-08-03T21:59:56.841Z,30.8
2018-08-03T22:04:56.814Z,30.8
2018-08-03T22:09:56.754Z,30.8
2018-08-03T22:14:56.754Z,30.8
2018-08-03T22:19:56.824Z,30.8
2018-08-03T22:24:56.717Z,30.8
2018-08-03T22:29:56.647Z,30.8
2018-08-03T22:34:56.900Z,30.8
2018-08-03T22:39:56.761Z,30.8
2018-08-03T22:44:56.606Z,30.8
2018-08-03T22:49:56.928Z,30.8
2018-08-03T22:54:56.964Z,30.8
2018-08-03T22:59:56.612Z,30.8
2018-08-03T23:04:56.759Z,30.8
2018-08-03T23:09:56.556Z,30.8
2018-08-03T23:14:56.681Z,30.8
2018-08-03T23:19:56.543Z,30.8
2018-08-03T23:24:56.701Z,30.8
2018-08-03T23:29:56.653Z,30.8
2018-08-03T23:34:56.702Z,30.8
2018-08-03T23:39:56.691Z,30.8
2018-08-03T23:44:56.519Z,30.8
2018-08-03T23:49:56.659Z,30.8
2018-08-03T23:54:56.783Z,30.8
2018-08-03T23:59:56.584Z,30.8
